createdAt,value
2023-08-12T00:01:00.642Z,4.38
2023-08-12T00:03:28.458Z,4.30
2023-08-12T00:05:55.328Z,4.00
2023-08-12T00:08:22.115Z,3.72
2023-08-12T00:10:48.873Z,3.70
2023-08-12T00:13:18.724Z,4.20
2023-08-12T00:15:46.123Z,4.07
2023-08-12T00:18:12.961Z,4.22
2023-08-12T00:20:39.731Z,4.10
2023-08-12T00:23:06.701Z,4.30
2023-08-12T00:25:33.484Z,4.43
2023-08-12T00:28:00.320Z,4.18
2023-08-12T00:30:27.310Z,3.90
2023-08-12T00:32:54.107Z,4.03
2023-08-12T00:35:20.951Z,4.32
2023-08-12T00:37:47.711Z,4.53
2023-08-12T00:40:14.963Z,4.30
2023-08-12T00:42:41.857Z,4.43
2023-08-12T00:45:13.964Z,4.80
2023-08-12T00:47:42.801Z,4.40
2023-08-12T00:50:13.513Z,4.60
2023-08-12T00:52:41.255Z,4.20
2023-08-12T00:55:08.420Z,4.57
2023-08-12T00:57:35.380Z,4.13
2023-08-12T01:00:04.888Z,4.50
2023-08-12T01:02:32.327Z,4.22
2023-08-12T01:04:59.855Z,4.20
2023-08-12T01:07:26.723Z,4.50
2023-08-12T01:09:54.218Z,4.20
2023-08-12T01:12:29.724Z,3.95
2023-08-12T01:15:15.623Z,3.95
2023-08-12T01:17:44.119Z,3.70
2023-08-12T01:20:15.830Z,4.13
2023-08-12T01:22:45.382Z,3.80
2023-08-12T01:25:12.146Z,3.70
2023-08-12T01:27:39.079Z,3.92
2023-08-12T01:30:07.656Z,3.90
2023-08-12T01:32:56.175Z,3.97
2023-08-12T01:35:37.558Z,3.90
2023-08-12T01:38:06.607Z,3.97
2023-08-12T01:40:34.216Z,3.55
2023-08-12T01:43:02.377Z,4.03
2023-08-12T01:45:33.123Z,3.97
2023-08-12T01:47:59.935Z,4.03
2023-08-12T01:50:26.865Z,4.10
2023-08-12T01:52:54.030Z,3.78
2023-08-12T01:55:20.825Z,4.27
2023-08-12T01:57:47.656Z,4.47
2023-08-12T02:00:14.676Z,4.40
2023-08-12T02:02:47.359Z,4.38
2023-08-12T02:05:15.491Z,4.40
2023-08-12T02:07:42.386Z,4.50
2023-08-12T02:10:10.393Z,4.45
2023-08-12T02:12:37.234Z,4.55
2023-08-12T02:15:04.252Z,4.47
2023-08-12T02:17:31.031Z,4.43
2023-08-12T02:19:57.805Z,4.30
2023-08-12T02:22:24.568Z,3.75
2023-08-12T02:24:51.661Z,3.60
2023-08-12T02:27:18.417Z,3.90
2023-08-12T02:29:45.141Z,3.80
2023-08-12T02:32:12.636Z,3.75
2023-08-12T02:34:39.417Z,3.80
2023-08-12T02:37:06.139Z,4.25
2023-08-12T02:39:32.858Z,3.90
2023-08-12T02:41:59.949Z,3.85
2023-08-12T02:44:27.684Z,4.10
2023-08-12T02:46:54.650Z,3.90
2023-08-12T02:49:21.370Z,3.73
2023-08-12T02:51:48.328Z,3.65
2023-08-12T02:54:15.212Z,4.50
2023-08-12T02:56:41.952Z,3.90
2023-08-12T02:59:08.718Z,4.30
2023-08-12T03:01:35.514Z,4.03
2023-08-12T03:04:02.264Z,3.35
2023-08-12T03:06:29.029Z,3.25
2023-08-12T03:08:56.078Z,3.40
2023-08-12T03:11:23.264Z,3.30
2023-08-12T03:13:50.085Z,3.15
2023-08-12T03:16:18.350Z,4.00
2023-08-12T03:18:47.436Z,3.63
2023-08-12T03:21:14.225Z,3.72
2023-08-12T03:23:41.685Z,3.85
2023-08-12T03:26:10.170Z,3.70
2023-08-12T03:28:36.992Z,3.65
2023-08-12T03:31:03.910Z,3.72
2023-08-12T03:33:34.755Z,3.50
2023-08-12T03:36:02.214Z,3.65
2023-08-12T03:38:28.968Z,3.50
2023-08-12T03:40:55.813Z,3.63
2023-08-12T03:43:22.603Z,3.83
2023-08-12T03:45:50.375Z,3.78
2023-08-12T03:48:19.833Z,3.40
2023-08-12T03:50:48.562Z,3.30
2023-08-12T03:53:15.394Z,3.35
2023-08-12T03:55:43.093Z,3.50
2023-08-12T03:58:10.944Z,3.65
2023-08-12T04:00:43.815Z,3.40
2023-08-12T04:03:12.408Z,2.67
2023-08-12T04:05:39.259Z,3.40
2023-08-12T04:08:06.158Z,3.37
2023-08-12T04:10:32.969Z,3.37
2023-08-12T04:12:59.705Z,3.22
2023-08-12T04:15:26.442Z,3.40
2023-08-12T04:17:53.550Z,3.42
2023-08-12T04:20:20.275Z,4.07
2023-08-12T04:22:49.830Z,5.03
2023-08-12T04:25:16.992Z,5.10
2023-08-12T04:27:43.878Z,4.53
2023-08-12T04:30:11.082Z,4.05
2023-08-12T04:32:38.487Z,3.80
2023-08-12T04:35:06.180Z,3.60
2023-08-12T04:37:33.232Z,3.60
2023-08-12T04:40:00.376Z,3.33
2023-08-12T04:42:27.714Z,3.10
2023-08-12T04:44:54.601Z,3.30
2023-08-12T04:47:21.672Z,2.90
2023-08-12T04:49:48.463Z,2.90
2023-08-12T04:52:15.583Z,3.20
2023-08-12T04:54:42.393Z,3.33
2023-08-12T04:57:09.124Z,3.17
2023-08-12T04:59:35.984Z,3.33
2023-08-12T05:02:05.302Z,3.25
2023-08-12T05:04:34.192Z,3.10
2023-08-12T05:07:01.070Z,3.20
2023-08-12T05:09:27.838Z,3.17
2023-08-12T05:11:54.558Z,3.35
2023-08-12T05:14:21.396Z,3.35
2023-08-12T05:16:48.618Z,3.10
2023-08-12T05:19:15.423Z,3.13
2023-08-12T05:21:42.153Z,3.85
2023-08-12T05:24:09.166Z,3.80
2023-08-12T05:26:36.003Z,4.18
2023-08-12T05:29:02.757Z,3.33
2023-08-12T05:31:30.187Z,3.50
2023-08-12T05:33:57.445Z,3.97
2023-08-12T05:36:24.274Z,3.90
2023-08-12T05:38:50.976Z,3.40
2023-08-12T05:41:17.714Z,3.70
2023-08-12T05:43:45.195Z,3.28
2023-08-12T05:46:12.213Z,3.33
2023-08-12T05:48:39.034Z,3.97
2023-08-12T05:51:05.952Z,3.30
2023-08-12T05:53:33.940Z,3.45
2023-08-12T05:56:00.989Z,3.75
2023-08-12T05:58:27.720Z,3.63
2023-08-12T06:00:54.462Z,3.72
2023-08-12T06:03:21.296Z,4.30
2023-08-12T06:05:48.273Z,3.78
2023-08-12T06:08:15.405Z,4.10
2023-08-12T06:10:42.538Z,3.70
2023-08-12T06:13:09.601Z,3.47
2023-08-12T06:15:36.493Z,3.20
2023-08-12T06:18:03.950Z,3.35
2023-08-12T06:20:30.668Z,3.50
2023-08-12T06:22:57.709Z,3.30
2023-08-12T06:25:24.449Z,3.00
2023-08-12T06:27:51.281Z,3.13
2023-08-12T06:30:18.088Z,3.10
2023-08-12T06:32:44.867Z,2.92
2023-08-12T06:35:11.754Z,3.33
2023-08-12T06:37:38.534Z,3.25
2023-08-12T06:40:05.839Z,3.50
2023-08-12T06:42:32.693Z,2.78
2023-08-12T06:45:00.900Z,3.08
2023-08-12T06:47:28.580Z,3.60
2023-08-12T06:49:56.205Z,3.00
2023-08-12T06:52:23.116Z,3.70
2023-08-12T06:54:50.019Z,3.35
2023-08-12T06:57:16.805Z,3.05
2023-08-12T07:41:18.172Z,2.30
2023-08-12T07:43:44.916Z,2.78
2023-08-12T07:46:11.700Z,3.08
2023-08-12T07:48:39.325Z,2.80
2023-08-12T07:51:06.596Z,3.08
2023-08-12T07:53:33.329Z,3.00
2023-08-12T07:56:00.047Z,2.65
2023-08-12T07:58:26.807Z,2.65
2023-08-12T08:00:55.356Z,3.08
2023-08-12T08:03:22.134Z,2.92
2023-08-12T08:05:49.233Z,3.00
2023-08-12T08:08:16.043Z,3.33
2023-08-12T08:10:42.860Z,3.05
2023-08-12T08:13:09.642Z,3.70
2023-08-12T09:30:17.478Z,2.40
2023-08-12T09:32:59.946Z,2.20
2023-08-12T09:35:36.615Z,2.50
2023-08-12T09:38:08.980Z,2.30
2023-08-12T09:40:37.824Z,2.28
2023-08-12T09:43:04.995Z,2.22
2023-08-12T09:45:33.633Z,2.40
2023-08-12T09:48:00.583Z,2.30
2023-08-12T09:50:29.185Z,2.38
2023-08-12T09:52:56.747Z,2.20
2023-08-12T09:55:25.740Z,2.20
2023-08-12T09:57:53.857Z,2.40
2023-08-12T10:00:22.407Z,2.55
2023-08-12T10:02:52.739Z,2.60
2023-08-12T10:05:23.680Z,2.88
2023-08-12T10:07:50.591Z,2.77
2023-08-12T10:10:17.674Z,2.78
2023-08-12T10:12:44.926Z,2.30
2023-08-12T10:15:12.705Z,2.50
2023-08-12T10:17:43.186Z,2.40
2023-08-12T10:20:14.524Z,2.50
2023-08-12T10:22:43.796Z,2.33
2023-08-12T10:25:10.613Z,2.30
2023-08-12T10:27:38.952Z,2.60
2023-08-12T10:30:06.959Z,2.60
2023-08-12T10:32:34.199Z,2.53
2023-08-12T10:35:01.332Z,2.60
2023-08-12T10:37:28.624Z,2.53
2023-08-12T10:39:55.953Z,2.60
2023-08-12T10:42:45.964Z,2.70
2023-08-12T10:45:14.664Z,2.30
2023-08-12T10:48:02.704Z,2.50
2023-08-12T10:50:32.766Z,2.40
2023-08-12T10:52:59.520Z,2.80
2023-08-12T10:55:28.334Z,2.63
2023-08-12T10:57:57.232Z,2.63
2023-08-12T11:00:29.269Z,2.45
2023-08-12T11:02:57.995Z,2.50
2023-08-12T11:05:26.137Z,2.60
2023-08-12T11:08:02.142Z,2.30
2023-08-12T11:10:34.291Z,2.50
2023-08-12T11:13:03.550Z,2.20
2023-08-12T11:15:47.018Z,2.30
2023-08-12T11:18:17.193Z,2.40
2023-08-12T11:20:45.060Z,2.35
2023-08-12T11:23:12.188Z,2.50
2023-08-12T11:25:40.690Z,2.55
2023-08-12T11:28:08.691Z,2.75
2023-08-12T11:30:35.952Z,2.53
2023-08-12T11:33:04.095Z,2.50
2023-08-12T11:35:31.077Z,2.50
2023-08-12T11:37:59.107Z,2.60
2023-08-12T11:40:27.971Z,2.67
2023-08-12T11:42:55.756Z,2.60
2023-08-12T11:45:24.687Z,2.50
2023-08-12T11:47:55.895Z,2.75
2023-08-12T11:50:26.403Z,2.80
2023-08-12T11:52:57.601Z,2.70
2023-08-12T11:55:25.088Z,2.70
2023-08-12T11:57:53.066Z,3.20
2023-08-12T12:00:20.568Z,2.80
2023-08-12T12:02:53.849Z,2.53
2023-08-12T12:05:26.429Z,2.70
2023-08-12T12:07:54.190Z,2.70
2023-08-12T12:10:26.544Z,2.90
2023-08-12T12:12:56.040Z,2.47
2023-08-12T12:15:23.117Z,2.40
2023-08-12T12:17:53.774Z,2.63
2023-08-12T12:20:21.567Z,2.35
2023-08-12T12:22:48.875Z,2.38
2023-08-12T12:25:17.402Z,2.45
2023-08-12T12:27:46.518Z,2.28
2023-08-12T12:30:15.184Z,2.50
2023-08-12T12:32:42.007Z,2.60
2023-08-12T12:35:09.069Z,2.50
2023-08-12T12:37:37.141Z,2.78
2023-08-12T12:40:04.924Z,2.70
2023-08-12T12:42:31.925Z,2.50
2023-08-12T12:44:58.667Z,2.30
2023-08-12T12:47:25.459Z,2.70
2023-08-12T12:49:52.224Z,2.90
2023-08-12T12:52:18.976Z,2.90
2023-08-12T12:54:45.784Z,2.90
2023-08-12T12:57:12.583Z,3.13
2023-08-12T12:59:39.299Z,3.10
2023-08-12T13:02:06.564Z,3.20
2023-08-12T13:04:33.310Z,3.30
2023-08-12T13:07:00.070Z,3.43
2023-08-12T13:09:26.822Z,3.20
2023-08-12T13:11:53.917Z,3.15
2023-08-12T13:14:22.224Z,3.15
2023-08-12T13:16:49.262Z,3.25
2023-08-12T13:19:16.108Z,3.67
2023-08-12T13:21:43.139Z,3.08
2023-08-12T13:24:09.895Z,3.15
2023-08-12T13:26:36.643Z,3.30
2023-08-12T13:29:03.575Z,3.40
2023-08-12T13:31:30.533Z,3.20
2023-08-12T13:33:57.307Z,3.50
2023-08-12T13:36:24.163Z,3.15
2023-08-12T13:38:51.290Z,3.25
2023-08-12T13:41:18.016Z,3.10
2023-08-12T13:43:44.730Z,3.50
2023-08-12T13:46:11.497Z,3.20
2023-08-12T13:48:38.317Z,3.15
2023-08-12T13:51:05.200Z,3.10
2023-08-12T13:53:31.958Z,3.05
2023-08-12T13:55:58.721Z,3.30
2023-08-12T13:58:25.466Z,3.30
2023-08-12T14:00:52.296Z,3.42
2023-08-12T14:03:19.634Z,2.78
2023-08-12T14:05:46.520Z,2.72
2023-08-12T14:08:13.349Z,2.63
2023-08-12T14:10:40.212Z,2.60
2023-08-12T14:13:07.937Z,2.65
2023-08-12T14:15:34.829Z,2.50
2023-08-12T14:18:01.723Z,2.33
2023-08-12T14:20:28.752Z,2.30
2023-08-12T14:22:55.591Z,2.80
2023-08-12T14:25:22.354Z,2.67
2023-08-12T14:27:49.078Z,2.90
2023-08-12T14:30:20.261Z,2.70
2023-08-12T14:32:48.383Z,2.70
2023-08-12T14:35:16.304Z,2.90
2023-08-12T14:37:43.048Z,3.10
2023-08-12T14:40:10.660Z,3.05
2023-08-12T14:42:37.472Z,2.90
2023-08-12T14:45:05.662Z,3.00
2023-08-12T14:47:32.462Z,3.13
2023-08-12T14:49:59.277Z,2.93
2023-08-12T14:52:25.979Z,3.25
2023-08-12T14:54:52.943Z,3.25
2023-08-12T14:57:19.699Z,3.00
2023-08-12T14:59:51.371Z,2.67
2023-08-12T15:02:20.603Z,2.65
2023-08-12T15:04:48.080Z,2.40
2023-08-12T15:07:15.478Z,2.30
2023-08-12T15:09:42.564Z,2.22
2023-08-12T15:12:09.488Z,2.20
2023-08-12T15:14:36.234Z,2.22
2023-08-12T15:17:03.076Z,2.10
2023-08-12T15:19:29.829Z,2.33
2023-08-12T15:21:56.604Z,2.20
2023-08-12T15:24:23.363Z,2.00
2023-08-12T15:26:50.128Z,2.10
2023-08-12T15:29:16.822Z,2.00
2023-08-12T15:31:43.533Z,2.08
2023-08-12T15:34:10.260Z,2.20
2023-08-12T15:36:37.382Z,2.20
2023-08-12T15:39:04.177Z,1.92
2023-08-12T15:41:31.005Z,2.10
2023-08-12T15:43:57.842Z,1.98
2023-08-12T15:46:24.756Z,2.20
2023-08-12T15:48:51.510Z,2.03
2023-08-12T15:51:18.323Z,2.20
2023-08-12T15:53:45.107Z,2.30
2023-08-12T15:56:11.846Z,2.28
2023-08-12T15:58:38.620Z,2.20
2023-08-12T16:20:42.946Z,2.70
2023-08-12T16:23:09.702Z,2.35
2023-08-12T16:25:36.414Z,2.10
2023-08-12T16:28:03.262Z,2.63
2023-08-12T17:09:41.168Z,2.50
2023-08-12T17:12:08.400Z,2.55
2023-08-12T17:14:35.202Z,2.05
2023-08-12T17:17:03.022Z,2.33
2023-08-12T17:19:29.928Z,2.72
2023-08-12T17:21:56.704Z,2.35
2023-08-12T17:24:23.429Z,2.42
2023-08-12T17:26:50.230Z,2.42
2023-08-12T17:29:16.982Z,3.03
2023-08-12T17:31:43.721Z,2.65
2023-08-12T17:34:10.436Z,2.80
2023-08-12T17:36:37.218Z,2.63
